Time;durP1;ratioP1;P1;durP2;ratioP2;P2;SDS_P1;SDS_P2;PMS_P1;PMS_P2;Temp;Humidity;BMP_temperature;BMP_pressure;BME280_temperature;BME280_humidity;BME280_pressure;Samples;Min_cycle;Max_cycle;Signal;HPM_P1;HPM_P2
2023/02/20 00:02:14;;;;;;;;;;;;;;;-142.41;100.00;64449.00;5140687;27;19923;-72
2023/02/20 00:04:39;;;;;;;;;;;;;;;-142.41;100.00;64449.00;5140524;27;19915;-69
2023/02/20 00:07:04;;;;;;;;;;;;;;;-142.41;100.00;64449.00;5140461;27;19911;-69
2023/02/20 00:09:30;;;;;;;;;;;;;;;-142.41;100.00;64449.00;5139862;27;19919;-69
2023/02/20 00:11:55;;;;;;;;;;;;;;;-142.41;100.00;64449.00;5140155;27;20002;-69
2023/02/20 00:14:46;;;;;;;;;;;;;;;-142.41;100.00;64449.00;5140192;27;20262;-70
2023/02/20 00:17:11;;;;;;;;;;;;;;;-142.41;100.00;64449.00;5121405;27;19998;-70
2023/02/20 00:19:36;;;;;;;;;;;;;;;-142.41;100.00;64449.00;5146445;27;20306;-68
2023/02/20 00:22:02;;;;;;;;;;;;;;;-142.41;100.00;64449.00;5143816;27;19972;-68
2023/02/20 00:24:27;;;;;;;;;;;;;;;-142.41;100.00;64449.00;5143759;27;19912;-68
2023/02/20 00:26:53;;;;;;;;;;;;;;;-142.41;100.00;64449.00;5142373;27;19996;-69
2023/02/20 00:29:20;;;;;;;;;;;;;;;-142.41;100.00;64449.00;5140379;27;19916;-71
2023/02/20 00:31:50;;;;;;;;;;;;;;;-142.41;100.00;64449.00;5140776;27;19964;-69
2023/02/20 00:34:15;;;;;;;;;;;;;;;-142.41;100.00;64449.00;5140203;27;19918;-69
2023/02/20 00:36:41;;;;;;;;;;;;;;;-142.41;100.00;64449.00;5140755;27;20299;-68
2023/02/20 00:39:06;;;;;;;;;;;;;;;-142.41;100.00;64449.00;5140131;27;19964;-70
2023/02/20 00:41:32;;;;;;;;;;;;;;;-142.41;100.00;64449.00;5140059;27;20258;-68
2023/02/20 00:43:57;;;;;;;;;;;;;;;-142.41;100.00;64449.00;5139725;27;19915;-69
2023/02/20 00:46:22;;;;;;;;;;;;;;;-142.41;100.00;64449.00;5136548;27;19934;-71
2023/02/20 00:48:49;;;;;;;;;;;;;;;-142.41;100.00;64449.00;5136494;27;20319;-70
2023/02/20 00:51:15;;;;;;;;;;;;;;;-142.41;100.00;64449.00;5136791;27;19912;-71
2023/02/20 00:53:40;;;;;;;;;;;;;;;-142.41;100.00;64449.00;5136315;27;19999;-72
2023/02/20 00:56:06;;;;;;;;;;;;;;;-142.41;100.00;64449.00;5136111;27;20015;-70
2023/02/20 00:58:31;;;;;;;;;;;;;;;-142.41;100.00;64449.00;5136065;27;19912;-71
2023/02/20 01:00:56;;;;;;;;;;;;;;;-142.41;100.00;64449.00;5136150;27;19912;-67
2023/02/20 01:03:22;;;;;;;;;;;;;;;-142.41;100.00;64449.00;5135911;27;20371;-68
2023/02/20 01:05:47;;;;;;;;;;;;;;;-142.41;100.00;64449.00;5136252;27;19911;-70
2023/02/20 01:08:12;;;;;;;;;;;;;;;-142.41;100.00;64449.00;5136187;27;19915;-68
2023/02/20 01:10:38;;;;;;;;;;;;;;;-142.41;100.00;64449.00;5136018;27;19912;-70
2023/02/20 01:13:03;;;;;;;;;;;;;;;-142.41;100.00;64449.00;5135851;27;19911;-68
2023/02/20 01:15:29;;;;;;;;;;;;;;;-142.41;100.00;64449.00;5135863;27;20303;-69
2023/02/20 01:17:55;;;;;;;;;;;;;;;-142.41;100.00;64449.00;5135917;27;19918;-70
2023/02/20 01:20:20;;;;;;;;;;;;;;;-142.41;100.00;64449.00;5135830;27;19964;-71
2023/02/20 01:22:45;;;;;;;;;;;;;;;-142.41;100.00;64449.00;5117324;27;19947;-69
2023/02/20 01:25:10;;;;;;;;;;;;;;;-142.41;100.00;64449.00;5135859;27;19934;-68
2023/02/20 01:27:36;;;;;;;;;;;;;;;-142.41;100.00;64449.00;5117087;27;19965;-68
2023/02/20 01:30:02;;;;;;;;;;;;;;;-142.41;100.00;64449.00;5135614;27;19995;-69
2023/02/20 01:32:28;;;;;;;;;;;;;;;-142.41;100.00;64449.00;5135626;27;19933;-70
2023/02/20 01:34:54;;;;;;;;;;;;;;;-142.41;100.00;64449.00;5135497;27;20410;-71
2023/02/20 01:37:19;;;;;;;;;;;;;;;-142.41;100.00;64449.00;5135530;27;19960;-70
2023/02/20 01:39:45;;;;;;;;;;;;;;;-142.41;100.00;64449.00;5135459;27;19912;-69
2023/02/20 01:42:13;;;;;;;;;;;;;;;-142.41;100.00;64449.00;5135388;27;19911;-67
2023/02/20 01:44:39;;;;;;;;;;;;;;;-142.41;100.00;64449.00;5135531;27;20243;-71
2023/02/20 01:47:05;;;;;;;;;;;;;;;-142.41;100.00;64449.00;5135580;27;19912;-68
2023/02/20 01:49:34;;;;;;;;;;;;;;;-142.41;100.00;64449.00;5135360;27;20358;-73
2023/02/20 01:52:13;;;;;;;;;;;;;;;-142.41;100.00;64449.00;5116840;27;19968;-68
2023/02/20 01:54:41;;;;;;;;;;;;;;;-142.41;100.00;64449.00;5135014;27;19912;-70
2023/02/20 01:57:08;;;;;;;;;;;;;;;-142.41;100.00;64449.00;5133953;27;19953;-67
2023/02/20 01:59:36;;;;;;;;;;;;;;;-142.41;100.00;64449.00;5134988;27;19911;-68
2023/02/20 02:02:02;;;;;;;;;;;;;;;-142.41;100.00;64449.00;5134900;27;19919;-71
2023/02/20 02:04:27;;;;;;;;;;;;;;;-142.41;100.00;64449.00;5134870;27;20290;-67
2023/02/20 02:06:53;;;;;;;;;;;;;;;-142.41;100.00;64449.00;5134848;27;20379;-71
2023/02/20 02:09:39;;;;;;;;;;;;;;;-142.41;100.00;64449.00;5134727;27;20316;-69
2023/02/20 02:12:04;;;;;;;;;;;;;;;-142.41;100.00;64449.00;5133707;27;19912;-71
2023/02/20 02:14:29;;;;;;;;;;;;;;;-142.41;100.00;64449.00;5134971;27;19922;-72
2023/02/20 02:17:11;;;;;;;;;;;;;;;-142.41;100.00;64449.00;5134701;27;19960;-69
2023/02/20 02:19:39;;;;;;;;;;;;;;;-142.41;100.00;64449.00;5134631;27;19923;-68
2023/02/20 02:22:25;;;;;;;;;;;;;;;-142.41;100.00;64449.00;5134392;27;19911;-68
2023/02/20 02:25:02;;;;;;;;;;;;;;;-142.41;100.00;64449.00;5134608;27;19911;-69
2023/02/20 02:27:35;;;;;;;;;;;;;;;-142.41;100.00;64449.00;5134562;27;19965;-69
2023/02/20 02:30:19;;;;;;;;;;;;;;;-142.41;100.00;64449.00;5134748;27;19919;-73
2023/02/20 02:32:50;;;;;;;;;;;;;;;-142.41;100.00;64449.00;5098822;27;20301;-67
2023/02/20 02:35:16;;;;;;;;;;;;;;;-142.41;100.00;64449.00;5134621;27;19971;-67
2023/02/20 02:37:41;;;;;;;;;;;;;;;-142.41;100.00;64449.00;5134285;27;19951;-69
2023/02/20 02:40:25;;;;;;;;;;;;;;;-142.41;100.00;64449.00;5134170;27;19911;-69
2023/02/20 02:42:53;;;;;;;;;;;;;;;-142.41;100.00;64449.00;5134168;27;20378;-70
2023/02/20 02:45:38;;;;;;;;;;;;;;;-142.41;100.00;64449.00;5133859;27;19934;-69
2023/02/20 02:48:10;;;;;;;;;;;;;;;-142.41;100.00;64449.00;5119199;27;19962;-69
2023/02/20 02:50:37;;;;;;;;;;;;;;;-142.41;100.00;64449.00;5134147;27;19956;-67
2023/02/20 02:53:05;;;;;;;;;;;;;;;-142.41;100.00;64449.00;5134070;27;19922;-70
2023/02/20 02:55:34;;;;;;;;;;;;;;;-142.41;100.00;64449.00;5133996;27;20406;-69
2023/02/20 02:58:00;;;;;;;;;;;;;;;-142.41;100.00;64449.00;5134218;27;20491;-69
2023/02/20 03:00:31;;;;;;;;;;;;;;;-142.41;100.00;64449.00;5133934;27;19911;-70
2023/02/20 03:03:02;;;;;;;;;;;;;;;-142.41;100.00;64449.00;5133971;27;20362;-69
2023/02/20 03:05:38;;;;;;;;;;;;;;;-142.41;100.00;64449.00;5134187;27;19949;-71
2023/02/20 03:08:12;;;;;;;;;;;;;;;-142.41;100.00;64449.00;5118712;27;19978;-68
2023/02/20 03:10:38;;;;;;;;;;;;;;;-142.41;100.00;64449.00;5123145;27;19912;-68
2023/02/20 03:13:04;;;;;;;;;;;;;;;-142.41;100.00;64449.00;5141667;27;19969;-69
2023/02/20 03:15:34;;;;;;;;;;;;;;;-142.41;100.00;64449.00;5142330;27;19923;-68
2023/02/20 03:18:10;;;;;;;;;;;;;;;-142.41;100.00;64449.00;5141107;27;19915;-68
2023/02/20 03:20:43;;;;;;;;;;;;;;;-142.41;100.00;64449.00;5124774;27;19957;-67
2023/02/20 03:23:11;;;;;;;;;;;;;;;-142.41;100.00;64449.00;5141465;27;20124;-69
2023/02/20 03:25:38;;;;;;;;;;;;;;;-142.41;100.00;64449.00;5142553;27;19911;-69
2023/02/20 03:28:16;;;;;;;;;;;;;;;-142.41;100.00;64449.00;5134867;27;19916;-69
2023/02/20 03:30:48;;;;;;;;;;;;;;;-142.41;100.00;64449.00;5133774;27;20017;-70
2023/02/20 03:44:39;;;;;;;;;;;;;;;-142.41;100.00;64449.00;5133909;28;19911;-69
2023/02/20 03:47:06;;;;;;;;;;;;;;;-142.41;100.00;64449.00;5138291;28;19923;-70
2023/02/20 03:49:37;;;;;;;;;;;;;;;-142.41;100.00;64449.00;5114945;28;19916;-69
2023/02/20 03:52:02;;;;;;;;;;;;;;;-142.41;100.00;64449.00;5133500;28;19911;-70
2023/02/20 03:54:28;;;;;;;;;;;;;;;-142.41;100.00;64449.00;5133286;28;19934;-69
2023/02/20 03:56:56;;;;;;;;;;;;;;;-142.41;100.00;64449.00;5117014;28;19911;-66
2023/02/20 03:59:24;;;;;;;;;;;;;;;-142.41;100.00;64449.00;5140963;28;19911;-68
2023/02/20 04:01:51;;;;;;;;;;;;;;;-142.41;100.00;64449.00;5137480;28;19922;-69
2023/02/20 04:04:22;;;;;;;;;;;;;;;-142.41;100.00;64449.00;5136486;28;19918;-70
2023/02/20 04:06:49;;;;;;;;;;;;;;;-142.41;100.00;64449.00;5136085;28;19911;-68
2023/02/20 04:09:18;;;;;;;;;;;;;;;-142.41;100.00;64449.00;5138622;28;20096;-69
2023/02/20 04:11:48;;;;;;;;;;;;;;;-142.41;100.00;64449.00;5137253;28;19911;-66
2023/02/20 04:14:17;;;;;;;;;;;;;;;-142.41;100.00;64449.00;5133445;28;19911;-65
2023/02/20 04:16:46;;;;;;;;;;;;;;;-142.41;100.00;64449.00;5132871;28;19970;-64
2023/02/20 04:19:36;;;;;;;;;;;;;;;-142.41;100.00;64449.00;5133134;27;20443;-65
2023/02/20 04:22:03;;;;;;;;;;;;;;;-142.41;100.00;64449.00;5135319;27;19915;-66
2023/02/20 04:24:31;;;;;;;;;;;;;;;-142.41;100.00;64449.00;5136288;27;19911;-65
2023/02/20 04:26:57;;;;;;;;;;;;;;;-142.41;100.00;64449.00;5136032;27;19911;-66
2023/02/20 04:29:24;;;;;;;;;;;;;;;-142.41;100.00;64449.00;5136395;27;19960;-67
2023/02/20 04:31:50;;;;;;;;;;;;;;;-142.41;100.00;64449.00;5135864;27;19926;-64
2023/02/20 04:34:15;;;;;;;;;;;;;;;-142.41;100.00;64449.00;5136273;27;19911;-63
2023/02/20 04:36:40;;;;;;;;;;;;;;;-142.41;100.00;64449.00;5136384;27;20067;-65
2023/02/20 04:39:06;;;;;;;;;;;;;;;-142.41;100.00;64449.00;5136491;27;19915;-64
2023/02/20 04:41:31;;;;;;;;;;;;;;;-142.41;100.00;64449.00;5136379;27;19911;-64
2023/02/20 04:46:40;;;;;;;;;;;;;;;-142.41;100.00;64449.00;5136889;27;20316;-68
2023/02/20 04:49:06;;;;;;;;;;;;;;;-142.41;100.00;64449.00;5136481;27;19918;-66
2023/02/20 04:51:31;;;;;;;;;;;;;;;-142.41;100.00;64449.00;5136216;27;19911;-64
2023/02/20 04:53:57;;;;;;;;;;;;;;;-142.41;100.00;64449.00;5135295;27;19911;-65
2023/02/20 04:56:22;;;;;;;;;;;;;;;-142.41;100.00;64449.00;5136028;27;19919;-66
2023/02/20 04:58:48;;;;;;;;;;;;;;;-142.41;100.00;64449.00;5135715;27;19918;-66
2023/02/20 05:01:14;;;;;;;;;;;;;;;-142.41;100.00;64449.00;5117474;27;19915;-63
2023/02/20 05:03:39;;;;;;;;;;;;;;;-142.41;100.00;64449.00;5135995;27;19915;-65
2023/02/20 05:06:04;;;;;;;;;;;;;;;-142.41;100.00;64449.00;5135704;27;19912;-65
2023/02/20 05:08:30;;;;;;;;;;;;;;;-142.41;100.00;64449.00;5136078;27;20278;-65
2023/02/20 05:10:56;;;;;;;;;;;;;;;-142.41;100.00;64449.00;5117616;27;19912;-65
2023/02/20 05:13:21;;;;;;;;;;;;;;;-142.41;100.00;64449.00;5136243;27;20006;-65
2023/02/20 05:15:46;;;;;;;;;;;;;;;-142.41;100.00;64449.00;5137696;27;19954;-65
2023/02/20 05:18:12;;;;;;;;;;;;;;;-142.41;100.00;64449.00;5117090;27;20023;-67
2023/02/20 05:23:21;;;;;;;;;;;;;;;-142.41;100.00;64449.00;5135218;27;20441;-65
2023/02/20 05:25:46;;;;;;;;;;;;;;;-142.41;100.00;64449.00;5116964;27;19951;-65
2023/02/20 05:28:12;;;;;;;;;;;;;;;-142.41;100.00;64449.00;5135409;27;19922;-65
2023/02/20 05:30:37;;;;;;;;;;;;;;;-142.41;100.00;64449.00;5117320;27;19954;-64
2023/02/20 05:33:02;;;;;;;;;;;;;;;-142.41;100.00;64449.00;5134604;27;20383;-65
2023/02/20 05:35:28;;;;;;;;;;;;;;;-142.41;100.00;64449.00;5135494;27;19918;-67
2023/02/20 05:37:53;;;;;;;;;;;;;;;-142.41;100.00;64449.00;5135074;27;19911;-66
2023/02/20 05:40:18;;;;;;;;;;;;;;;-142.41;100.00;64449.00;5135057;27;19919;-65
2023/02/20 05:42:44;;;;;;;;;;;;;;;-142.41;100.00;64449.00;5135188;27;19912;-66
2023/02/20 05:45:09;;;;;;;;;;;;;;;-142.41;100.00;64449.00;5135427;27;20426;-66
2023/02/20 05:47:37;;;;;;;;;;;;;;;-142.41;100.00;64449.00;5126970;27;19950;-65
2023/02/20 05:50:03;;;;;;;;;;;;;;;-142.41;100.00;64449.00;5116802;27;20014;-65
2023/02/20 05:52:28;;;;;;;;;;;;;;;-142.41;100.00;64449.00;5113930;28;20396;-66
2023/02/20 05:54:54;;;;;;;;;;;;;;;-142.41;100.00;64449.00;5114366;28;19947;-65
2023/02/20 05:57:19;;;;;;;;;;;;;;;-142.41;100.00;64449.00;5096178;28;19924;-66
2023/02/20 05:59:44;;;;;;;;;;;;;;;-142.41;100.00;64449.00;5114374;28;19912;-64
2023/02/20 06:02:10;;;;;;;;;;;;;;;-142.41;100.00;64449.00;5114158;28;19959;-67
2023/02/20 06:04:35;;;;;;;;;;;;;;;-142.41;100.00;64449.00;5114260;28;19976;-66
2023/02/20 06:07:00;;;;;;;;;;;;;;;-142.41;100.00;64449.00;5114846;28;19912;-63
2023/02/20 06:09:26;;;;;;;;;;;;;;;-142.41;100.00;64449.00;5115187;28;19918;-67
2023/02/20 06:11:55;;;;;;;;;;;;;;;-142.41;100.00;64449.00;5115437;28;19912;-65
2023/02/20 06:14:21;;;;;;;;;;;;;;;-142.41;100.00;64449.00;5115172;28;19923;-65
2023/02/20 06:16:47;;;;;;;;;;;;;;;-142.41;100.00;64449.00;5115539;28;19951;-64
2023/02/20 06:19:21;;;;;;;;;;;;;;;-142.41;100.00;64449.00;5114193;28;19966;-67
2023/02/20 06:21:52;;;;;;;;;;;;;;;-142.41;100.00;64449.00;5113425;28;19916;-67
2023/02/20 06:24:17;;;;;;;;;;;;;;;-142.41;100.00;64449.00;5113748;28;19955;-64
2023/02/20 06:26:43;;;;;;;;;;;;;;;-142.41;100.00;64449.00;5113973;28;20278;-66
2023/02/20 06:29:09;;;;;;;;;;;;;;;-142.41;100.00;64449.00;5113735;28;19920;-63
2023/02/20 06:31:35;;;;;;;;;;;;;;;-142.41;100.00;64449.00;5113718;28;20404;-65
2023/02/20 06:34:00;;;;;;;;;;;;;;;-142.41;100.00;64449.00;5113444;28;19912;-64
2023/02/20 06:36:27;;;;;;;;;;;;;;;-142.41;100.00;64449.00;5113222;28;20387;-64
2023/02/20 06:38:53;;;;;;;;;;;;;;;-142.41;100.00;64449.00;5113344;28;19918;-67
2023/02/20 06:41:18;;;;;;;;;;;;;;;-142.41;100.00;64449.00;5113523;28;19912;-67
2023/02/20 06:43:44;;;;;;;;;;;;;;;-142.41;100.00;64449.00;5112871;28;20277;-64
2023/02/20 06:46:09;;;;;;;;;;;;;;;-142.41;100.00;64449.00;5095244;28;19923;-65
2023/02/20 06:48:42;;;;;;;;;;;;;;;-142.41;100.00;64449.00;5113554;28;20326;-66
2023/02/20 06:51:07;;;;;;;;;;;;;;;-142.41;100.00;64449.00;5113257;28;20347;-68
2023/02/20 06:53:36;;;;;;;;;;;;;;;-142.41;100.00;64449.00;5113424;28;20283;-68
2023/02/20 06:56:05;;;;;;;;;;;;;;;-142.41;100.00;64449.00;5114537;28;20002;-66
2023/02/20 06:58:30;;;;;;;;;;;;;;;-142.41;100.00;64449.00;5114096;28;19939;-65
2023/02/20 07:00:55;;;;;;;;;;;;;;;-142.41;100.00;64449.00;5113056;28;20363;-66
2023/02/20 07:03:20;;;;;;;;;;;;;;;-142.41;100.00;64449.00;5112883;28;19911;-68
2023/02/20 07:05:46;;;;;;;;;;;;;;;-142.41;100.00;64449.00;5113387;28;19916;-66
2023/02/20 07:08:11;;;;;;;;;;;;;;;-142.41;100.00;64449.00;5112873;28;19973;-66
2023/02/20 07:10:36;;;;;;;;;;;;;;;-142.41;100.00;64449.00;5113334;27;19985;-64
2023/02/20 07:13:04;;;;;;;;;;;;;;;-142.41;100.00;64449.00;5133405;27;19912;-67
2023/02/20 07:15:30;;;;;;;;;;;;;;;-142.41;100.00;64449.00;5133275;27;19915;-65
2023/02/20 07:17:55;;;;;;;;;;;;;;;-142.41;100.00;64449.00;5133461;27;20613;-65
2023/02/20 07:20:21;;;;;;;;;;;;;;;-142.41;100.00;64449.00;5133687;27;19919;-64
2023/02/20 07:22:51;;;;;;;;;;;;;;;-142.41;100.00;64449.00;5115676;28;19919;-64
2023/02/20 07:25:16;;;;;;;;;;;;;;;-142.41;100.00;64449.00;5097839;28;20019;-65
2023/02/20 07:27:42;;;;;;;;;;;;;;;-142.41;100.00;64449.00;5132700;27;19927;-66
2023/02/20 07:30:10;;;;;;;;;;;;;;;-142.41;100.00;64449.00;5132860;27;19983;-66
2023/02/20 07:32:35;;;;;;;;;;;;;;;-142.41;100.00;64449.00;5126791;28;20041;-62
2023/02/20 07:35:00;;;;;;;;;;;;;;;-142.41;100.00;64449.00;5132657;28;20422;-64
2023/02/20 07:37:25;;;;;;;;;;;;;;;-142.41;100.00;64449.00;5122140;28;19993;-64
2023/02/20 07:39:51;;;;;;;;;;;;;;;-142.41;100.00;64449.00;5094281;28;19949;-64
2023/02/20 07:42:17;;;;;;;;;;;;;;;-142.41;100.00;64449.00;5112743;28;19912;-66
2023/02/20 07:44:43;;;;;;;;;;;;;;;-142.41;100.00;64449.00;5111852;28;19916;-63
2023/02/20 07:47:08;;;;;;;;;;;;;;;-142.41;100.00;64449.00;5111108;28;19919;-65
2023/02/20 07:49:33;;;;;;;;;;;;;;;-142.41;100.00;64449.00;5093864;28;19912;-64
2023/02/20 07:51:59;;;;;;;;;;;;;;;-142.41;100.00;64449.00;5112759;28;19911;-66
2023/02/20 07:54:26;;;;;;;;;;;;;;;-142.41;100.00;64449.00;5113077;28;19912;-64
2023/02/20 07:56:51;;;;;;;;;;;;;;;-142.41;100.00;64449.00;5116693;28;19962;-65
2023/02/20 07:59:17;;;;;;;;;;;;;;;-142.41;100.00;64449.00;5116700;28;19955;-65
2023/02/20 08:01:43;;;;;;;;;;;;;;;-142.41;100.00;64449.00;5116059;28;19912;-66
2023/02/20 08:04:08;;;;;;;;;;;;;;;-142.41;100.00;64449.00;5118623;27;19919;-66
2023/02/20 08:06:34;;;;;;;;;;;;;;;-142.41;100.00;64449.00;5137016;27;20116;-63
2023/02/20 08:08:59;;;;;;;;;;;;;;;-142.41;100.00;64449.00;5118517;27;20290;-63
2023/02/20 08:11:24;;;;;;;;;;;;;;;-142.41;100.00;64449.00;5136877;27;20219;-65
2023/02/20 08:13:50;;;;;;;;;;;;;;;-142.41;100.00;64449.00;5136483;27;20382;-64
2023/02/20 08:16:15;;;;;;;;;;;;;;;-142.41;100.00;64449.00;5136444;27;19934;-66
2023/02/20 08:18:41;;;;;;;;;;;;;;;-142.41;100.00;64449.00;5136307;27;19926;-66
2023/02/20 08:21:06;;;;;;;;;;;;;;;-142.41;100.00;64449.00;5136866;27;19911;-68
2023/02/20 08:23:32;;;;;;;;;;;;;;;-142.41;100.00;64449.00;5136352;27;19915;-66
2023/02/20 08:25:59;;;;;;;;;;;;;;;-142.41;100.00;64449.00;5136551;27;20431;-66
2023/02/20 08:28:24;;;;;;;;;;;;;;;-142.41;100.00;64449.00;5136509;27;19975;-70
2023/02/20 08:30:50;;;;;;;;;;;;;;;-142.41;100.00;64449.00;5136568;27;19919;-66
2023/02/20 08:33:15;;;;;;;;;;;;;;;-142.41;100.00;64449.00;5136193;27;20400;-66
2023/02/20 08:35:41;;;;;;;;;;;;;;;-142.41;100.00;64449.00;5118149;27;19912;-64
2023/02/20 08:38:20;;;;;;;;;;;;;;;-142.41;100.00;64449.00;5136548;27;20251;-66
2023/02/20 08:40:45;;;;;;;;;;;;;;;-142.41;100.00;64449.00;5136348;27;20345;-64
2023/02/20 08:43:11;;;;;;;;;;;;;;;-142.41;100.00;64449.00;5136438;27;19912;-70
2023/02/20 08:45:36;;;;;;;;;;;;;;;-142.41;100.00;64449.00;5136849;27;19911;-64
2023/02/20 08:48:01;;;;;;;;;;;;;;;-142.41;100.00;64449.00;5136232;27;19935;-65
2023/02/20 08:50:27;;;;;;;;;;;;;;;-142.41;100.00;64449.00;5136240;27;19917;-64
2023/02/20 08:52:52;;;;;;;;;;;;;;;-142.41;100.00;64449.00;5122489;27;19918;-64
2023/02/20 08:55:17;;;;;;;;;;;;;;;-142.41;100.00;64449.00;5115529;28;19934;-65
2023/02/20 08:57:43;;;;;;;;;;;;;;;-142.41;100.00;64449.00;5115465;28;19912;-64
2023/02/20 09:00:09;;;;;;;;;;;;;;;-142.41;100.00;64449.00;5114949;28;19912;-62
2023/02/20 09:02:34;;;;;;;;;;;;;;;-142.41;100.00;64449.00;5115281;28;20347;-64
2023/02/20 09:05:00;;;;;;;;;;;;;;;-142.41;100.00;64449.00;5115874;28;19923;-64
2023/02/20 09:07:25;;;;;;;;;;;;;;;-142.41;100.00;64449.00;5114725;28;20391;-65
2023/02/20 09:09:50;;;;;;;;;;;;;;;-142.41;100.00;64449.00;5115383;28;20333;-65
2023/02/20 09:12:16;;;;;;;;;;;;;;;-142.41;100.00;64449.00;5115323;28;20028;-64
2023/02/20 09:14:41;;;;;;;;;;;;;;;-142.41;100.00;64449.00;5115196;28;19912;-65
2023/02/20 09:17:07;;;;;;;;;;;;;;;-142.41;100.00;64449.00;5115459;28;20282;-65
2023/02/20 09:19:32;;;;;;;;;;;;;;;-142.41;100.00;64449.00;5115505;28;19912;-64
2023/02/20 09:21:57;;;;;;;;;;;;;;;-142.41;100.00;64449.00;5115057;28;19920;-66
2023/02/20 09:24:23;;;;;;;;;;;;;;;-142.41;100.00;64449.00;5114976;28;20359;-66
2023/02/20 09:26:48;;;;;;;;;;;;;;;-142.41;100.00;64449.00;5114906;28;20371;-65
2023/02/20 09:29:14;;;;;;;;;;;;;;;-142.41;100.00;64449.00;5114693;28;19916;-66
2023/02/20 09:31:39;;;;;;;;;;;;;;;-142.41;100.00;64449.00;5114735;28;20270;-64
2023/02/20 09:34:05;;;;;;;;;;;;;;;-142.41;100.00;64449.00;5114717;28;19919;-65
2023/02/20 09:36:30;;;;;;;;;;;;;;;-142.41;100.00;64449.00;5114896;28;19916;-64
2023/02/20 09:38:55;;;;;;;;;;;;;;;-142.41;100.00;64449.00;5096673;28;19918;-64
2023/02/20 09:41:21;;;;;;;;;;;;;;;-142.41;100.00;64449.00;5114729;28;19912;-66
2023/02/20 09:43:59;;;;;;;;;;;;;;;-142.41;100.00;64449.00;5114737;28;19912;-67
2023/02/20 09:46:25;;;;;;;;;;;;;;;-142.41;100.00;64449.00;5114781;28;19963;-65
2023/02/20 09:48:59;;;;;;;;;;;;;;;-142.41;100.00;64449.00;5114617;28;19916;-66
2023/02/20 09:51:27;;;;;;;;;;;;;;;-142.41;100.00;64449.00;5124748;27;19919;-65
2023/02/20 09:54:02;;;;;;;;;;;;;;;-142.41;100.00;64449.00;5123445;27;19915;-64
2023/02/20 09:56:30;;;;;;;;;;;;;;;-142.41;100.00;64449.00;5123027;27;20357;-65
2023/02/20 09:59:04;;;;;;;;;;;;;;;-142.41;100.00;64449.00;5123240;27;19912;-66
2023/02/20 10:01:31;;;;;;;;;;;;;;;-142.41;100.00;64449.00;5125787;27;19939;-65
2023/02/20 10:03:59;;;;;;;;;;;;;;;-142.41;100.00;64449.00;5121617;27;20290;-67
2023/02/20 10:06:29;;;;;;;;;;;;;;;-142.41;100.00;64449.00;5124862;27;19912;-64
2023/02/20 10:08:55;;;;;;;;;;;;;;;-142.41;100.00;64449.00;5126447;27;19964;-67
2023/02/20 10:11:39;;;;;;;;;;;;;;;-142.41;100.00;64449.00;5126070;27;20007;-66
2023/02/20 10:14:22;;;;;;;;;;;;;;;-142.41;100.00;64449.00;5126633;27;20316;-64
2023/02/20 10:16:48;;;;;;;;;;;;;;;-142.41;100.00;64449.00;5125017;27;19950;-68
2023/02/20 10:19:19;;;;;;;;;;;;;;;-142.41;100.00;64449.00;5105205;27;20299;-68
2023/02/20 10:21:54;;;;;;;;;;;;;;;-142.41;100.00;64449.00;5106609;27;20010;-68
2023/02/20 10:24:38;;;;;;;;;;;;;;;-142.41;100.00;64449.00;5123317;27;20089;-72
2023/02/20 10:27:23;;;;;;;;;;;;;;;-142.41;100.00;64449.00;5124901;27;19922;-72
2023/02/20 10:29:51;;;;;;;;;;;;;;;-142.41;100.00;64449.00;5123624;27;19928;-71
2023/02/20 10:32:43;;;;;;;;;;;;;;;-142.41;100.00;64449.00;5124777;27;19922;-67
2023/02/20 10:35:11;;;;;;;;;;;;;;;-142.41;100.00;64449.00;5089492;28;20015;-68
2023/02/20 10:37:39;;;;;;;;;;;;;;;-142.41;100.00;64449.00;5100674;27;19912;-65
2023/02/20 10:40:27;;;;;;;;;;;;;;;-142.41;100.00;64449.00;5122261;27;20339;-63
2023/02/20 10:43:12;;;;;;;;;;;;;;;-142.41;100.00;64449.00;5122733;27;20316;-66
2023/02/20 10:45:45;;;;;;;;;;;;;;;-142.41;100.00;64449.00;5110131;27;19919;-65
2023/02/20 10:48:14;;;;;;;;;;;;;;;-142.41;100.00;64449.00;5122804;27;19927;-65
2023/02/20 10:50:47;;;;;;;;;;;;;;;-142.41;100.00;64449.00;5121985;27;19942;-64
2023/02/20 10:53:18;;;;;;;;;;;;;;;-142.41;100.00;64449.00;5126262;27;20014;-65
2023/02/20 10:55:58;;;;;;;;;;;;;;;-142.41;100.00;64449.00;5121688;27;19912;-65
2023/02/20 10:58:37;;;;;;;;;;;;;;;-142.41;100.00;64449.00;5121912;27;19915;-68
2023/02/20 11:01:05;;;;;;;;;;;;;;;-142.41;100.00;64449.00;5124150;27;19923;-67
2023/02/20 11:03:40;;;;;;;;;;;;;;;-142.41;100.00;64449.00;5103029;27;19915;-65
2023/02/20 11:06:08;;;;;;;;;;;;;;;-142.41;100.00;64449.00;5124091;27;19963;-64
2023/02/20 11:08:33;;;;;;;;;;;;;;;-142.41;100.00;64449.00;5123075;27;19919;-66
2023/02/20 11:11:00;;;;;;;;;;;;;;;-142.41;100.00;64449.00;5121911;27;19911;-66
2023/02/20 11:13:26;;;;;;;;;;;;;;;-142.41;100.00;64449.00;5121716;27;19918;-65
2023/02/20 11:15:53;;;;;;;;;;;;;;;-142.41;100.00;64449.00;5123208;27;19912;-65
2023/02/20 11:18:34;;;;;;;;;;;;;;;-142.41;100.00;64449.00;5123944;27;19919;-63
2023/02/20 11:20:59;;;;;;;;;;;;;;;-142.41;100.00;64449.00;5123420;27;19911;-66
2023/02/20 11:23:43;;;;;;;;;;;;;;;-142.41;100.00;64449.00;5123639;27;20404;-66
2023/02/20 11:26:20;;;;;;;;;;;;;;;-142.41;100.00;64449.00;5130579;27;19911;-68
2023/02/20 11:28:58;;;;;;;;;;;;;;;-142.41;100.00;64449.00;5132903;27;20324;-66
2023/02/20 11:31:24;;;;;;;;;;;;;;;-142.41;100.00;64449.00;5133363;27;19916;-66
2023/02/20 11:33:49;;;;;;;;;;;;;;;-142.41;100.00;64449.00;5132919;27;19935;-66
2023/02/20 11:36:21;;;;;;;;;;;;;;;-142.41;100.00;64449.00;5132975;28;19947;-66
2023/02/20 11:38:47;;;;;;;;;;;;;;;-142.41;100.00;64449.00;5114664;28;19912;-64
2023/02/20 11:41:27;;;;;;;;;;;;;;;-142.41;100.00;64449.00;5133337;28;19918;-65
2023/02/20 11:44:07;;;;;;;;;;;;;;;-142.41;100.00;64449.00;5132430;28;19980;-63
2023/02/20 11:46:32;;;;;;;;;;;;;;;-142.41;100.00;64449.00;5132830;28;20347;-67
2023/02/20 11:48:58;;;;;;;;;;;;;;;-142.41;100.00;64449.00;5133156;28;19915;-69
2023/02/20 11:51:30;;;;;;;;;;;;;;;-142.41;100.00;64449.00;5132989;28;19955;-69
2023/02/20 11:54:16;;;;;;;;;;;;;;;-142.41;100.00;64449.00;5133589;28;19912;-66
2023/02/20 11:57:00;;;;;;;;;;;;;;;-142.41;100.00;64449.00;5132271;28;19921;-63
2023/02/20 11:59:30;;;;;;;;;;;;;;;-142.41;100.00;64449.00;5132727;28;20429;-69
2023/02/20 12:02:09;;;;;;;;;;;;;;;-142.41;100.00;64449.00;5133113;28;19955;-70
2023/02/20 12:04:35;;;;;;;;;;;;;;;-142.41;100.00;64449.00;5133066;28;19912;-67
2023/02/20 12:07:15;;;;;;;;;;;;;;;-142.41;100.00;64449.00;5132970;28;19923;-66
2023/02/20 12:09:42;;;;;;;;;;;;;;;-142.41;100.00;64449.00;5133028;28;20006;-65
2023/02/20 12:12:12;;;;;;;;;;;;;;;-142.41;100.00;64449.00;5132909;28;20056;-64
2023/02/20 12:14:38;;;;;;;;;;;;;;;-142.41;100.00;64449.00;5133030;28;19919;-65
2023/02/20 12:17:09;;;;;;;;;;;;;;;-142.41;100.00;64449.00;5132757;28;19911;-65
2023/02/20 12:19:53;;;;;;;;;;;;;;;-142.41;100.00;64449.00;5134344;28;19912;-65
2023/02/20 12:22:29;;;;;;;;;;;;;;;-142.41;100.00;64449.00;5132853;28;19911;-66
2023/02/20 12:25:13;;;;;;;;;;;;;;;-142.41;100.00;64449.00;5114452;28;20055;-67
2023/02/20 12:27:50;;;;;;;;;;;;;;;-142.41;100.00;64449.00;5132735;28;19915;-65
2023/02/20 12:30:17;;;;;;;;;;;;;;;-142.41;100.00;64449.00;5133131;28;20006;-66
2023/02/20 12:32:51;;;;;;;;;;;;;;;-142.41;100.00;64449.00;5132571;28;20390;-65
2023/02/20 12:35:24;;;;;;;;;;;;;;;-142.41;100.00;64449.00;5133652;28;19911;-68
2023/02/20 12:37:55;;;;;;;;;;;;;;;-142.41;100.00;64449.00;5133351;28;19915;-69
2023/02/20 12:40:43;;;;;;;;;;;;;;;-142.41;100.00;64449.00;5133179;28;19923;-65
2023/02/20 12:43:25;;;;;;;;;;;;;;;-142.41;100.00;64449.00;5135908;27;19911;-64